sensor_id;sensor_type;location;lat;lon;timestamp;temperature;humidity
66670;DHT22;53568;52.164;4.472;2022-07-23T00:00:00;17.34;69.06
66670;DHT22;53568;52.164;4.472;2022-07-23T00:02:26;17.28;69.09
66670;DHT22;53568;52.164;4.472;2022-07-23T00:04:52;17.27;69.24
66670;DHT22;53568;52.164;4.472;2022-07-23T00:07:17;17.26;69.14
66670;DHT22;53568;52.164;4.472;2022-07-23T00:09:42;17.27;69.02
66670;DHT22;53568;52.164;4.472;2022-07-23T00:12:08;17.43;68.52
66670;DHT22;53568;52.164;4.472;2022-07-23T00:14:34;17.44;68.33
66670;DHT22;53568;52.164;4.472;2022-07-23T00:16:59;17.43;68.35
66670;DHT22;53568;52.164;4.472;2022-07-23T00:19:25;17.34;68.81
66670;DHT22;53568;52.164;4.472;2022-07-23T00:21:50;17.27;69.05
66670;DHT22;53568;52.164;4.472;2022-07-23T00:24:16;17.26;69.35
66670;DHT22;53568;52.164;4.472;2022-07-23T00:26:41;17.22;69.71
66670;DHT22;53568;52.164;4.472;2022-07-23T00:29:07;17.24;69.57
66670;DHT22;53568;52.164;4.472;2022-07-23T00:31:32;17.26;69.83
66670;DHT22;53568;52.164;4.472;2022-07-23T00:33:58;17.28;69.74
66670;DHT22;53568;52.164;4.472;2022-07-23T00:36:27;17.33;69.76
66670;DHT22;53568;52.164;4.472;2022-07-23T00:38:52;17.26;69.94
66670;DHT22;53568;52.164;4.472;2022-07-23T00:41:18;17.23;70.20
66670;DHT22;53568;52.164;4.472;2022-07-23T00:43:44;17.22;70.29
66670;DHT22;53568;52.164;4.472;2022-07-23T00:46:10;17.09;70.70
66670;DHT22;53568;52.164;4.472;2022-07-23T00:48:35;17.20;70.47
66670;DHT22;53568;52.164;4.472;2022-07-23T00:51:01;17.27;70.41
66670;DHT22;53568;52.164;4.472;2022-07-23T00:53:26;17.31;70.17
66670;DHT22;53568;52.164;4.472;2022-07-23T00:55:54;17.27;70.09
66670;DHT22;53568;52.164;4.472;2022-07-23T00:58:19;17.20;70.28
66670;DHT22;53568;52.164;4.472;2022-07-23T01:00:45;17.20;70.50
66670;DHT22;53568;52.164;4.472;2022-07-23T01:03:11;17.23;70.56
66670;DHT22;53568;52.164;4.472;2022-07-23T01:05:37;17.16;71.06
66670;DHT22;53568;52.164;4.472;2022-07-23T01:08:05;17.22;70.94
66670;DHT22;53568;52.164;4.472;2022-07-23T01:10:31;17.26;70.91
66670;DHT22;53568;52.164;4.472;2022-07-23T01:13:00;17.24;71.15
66670;DHT22;53568;52.164;4.472;2022-07-23T01:15:26;17.27;71.31
66670;DHT22;53568;52.164;4.472;2022-07-23T01:17:52;17.34;71.31
66670;DHT22;53568;52.164;4.472;2022-07-23T01:20:18;17.43;71.13
66670;DHT22;53568;52.164;4.472;2022-07-23T01:22:44;17.54;70.96
66670;DHT22;53568;52.164;4.472;2022-07-23T01:25:10;17.64;70.64
66670;DHT22;53568;52.164;4.472;2022-07-23T01:27:35;17.73;70.34
66670;DHT22;53568;52.164;4.472;2022-07-23T01:30:02;17.78;70.21
66670;DHT22;53568;52.164;4.472;2022-07-23T01:32:28;17.82;70.14
66670;DHT22;53568;52.164;4.472;2022-07-23T01:34:54;17.87;70.07
66670;DHT22;53568;52.164;4.472;2022-07-23T01:37:19;17.88;70.00
66670;DHT22;53568;52.164;4.472;2022-07-23T01:39:45;17.90;69.68
66670;DHT22;53568;52.164;4.472;2022-07-23T01:42:10;17.87;69.85
66670;DHT22;53568;52.164;4.472;2022-07-23T01:44:36;17.88;69.68
66670;DHT22;53568;52.164;4.472;2022-07-23T01:47:01;17.95;69.30
66670;DHT22;53568;52.164;4.472;2022-07-23T01:49:27;17.98;69.24
66670;DHT22;53568;52.164;4.472;2022-07-23T01:51:52;18.04;68.87
66670;DHT22;53568;52.164;4.472;2022-07-23T01:54:29;18.06;68.50
66670;DHT22;53568;52.164;4.472;2022-07-23T01:56:55;18.09;68.05
66670;DHT22;53568;52.164;4.472;2022-07-23T01:59:22;18.12;67.83
66670;DHT22;53568;52.164;4.472;2022-07-23T02:01:47;18.19;67.66
66670;DHT22;53568;52.164;4.472;2022-07-23T02:04:16;18.21;67.48
66670;DHT22;53568;52.164;4.472;2022-07-23T02:06:42;18.22;67.44
66670;DHT22;53568;52.164;4.472;2022-07-23T02:09:07;18.22;67.41
66670;DHT22;53568;52.164;4.472;2022-07-23T02:11:33;18.21;67.41
66670;DHT22;53568;52.164;4.472;2022-07-23T02:13:59;18.22;67.40
66670;DHT22;53568;52.164;4.472;2022-07-23T02:16:24;18.22;67.47
66670;DHT22;53568;52.164;4.472;2022-07-23T02:18:49;18.21;67.38
66670;DHT22;53568;52.164;4.472;2022-07-23T02:21:15;18.06;67.92
66670;DHT22;53568;52.164;4.472;2022-07-23T02:23:41;17.90;68.65
66670;DHT22;53568;52.164;4.472;2022-07-23T02:26:06;17.82;68.89
66670;DHT22;53568;52.164;4.472;2022-07-23T02:28:32;17.75;68.94
66670;DHT22;53568;52.164;4.472;2022-07-23T02:30:57;17.70;69.28
66670;DHT22;53568;52.164;4.472;2022-07-23T02:33:23;17.63;69.47
66670;DHT22;53568;52.164;4.472;2022-07-23T02:35:48;17.47;69.82
66670;DHT22;53568;52.164;4.472;2022-07-23T02:38:14;17.47;69.93
66670;DHT22;53568;52.164;4.472;2022-07-23T02:40:39;17.40;70.18
66670;DHT22;53568;52.164;4.472;2022-07-23T02:43:05;17.20;70.72
66670;DHT22;53568;52.164;4.472;2022-07-23T02:45:30;17.10;71.23
66670;DHT22;53568;52.164;4.472;2022-07-23T02:47:56;17.20;71.24
66670;DHT22;53568;52.164;4.472;2022-07-23T02:50:21;17.27;70.99
66670;DHT22;53568;52.164;4.472;2022-07-23T02:52:47;17.22;71.38
66670;DHT22;53568;52.164;4.472;2022-07-23T02:55:12;17.07;71.80
66670;DHT22;53568;52.164;4.472;2022-07-23T02:57:38;17.14;71.34
66670;DHT22;53568;52.164;4.472;2022-07-23T03:00:05;17.10;71.06
66670;DHT22;53568;52.164;4.472;2022-07-23T03:02:31;17.20;70.52
66670;DHT22;53568;52.164;4.472;2022-07-23T03:04:56;17.23;69.68
66670;DHT22;53568;52.164;4.472;2022-07-23T03:07:22;17.19;70.16
66670;DHT22;53568;52.164;4.472;2022-07-23T03:09:48;17.09;70.89
66670;DHT22;53568;52.164;4.472;2022-07-23T03:12:14;17.16;70.51
66670;DHT22;53568;52.164;4.472;2022-07-23T03:14:40;17.14;70.49
66670;DHT22;53568;52.164;4.472;2022-07-23T03:17:05;17.14;70.38
66670;DHT22;53568;52.164;4.472;2022-07-23T03:19:31;17.12;70.67
66670;DHT22;53568;52.164;4.472;2022-07-23T03:21:56;17.16;71.00
66670;DHT22;53568;52.164;4.472;2022-07-23T03:24:22;17.27;70.46
66670;DHT22;53568;52.164;4.472;2022-07-23T03:26:49;17.38;70.13
66670;DHT22;53568;52.164;4.472;2022-07-23T03:29:15;17.48;69.72
66670;DHT22;53568;52.164;4.472;2022-07-23T03:31:40;17.55;69.05
66670;DHT22;53568;52.164;4.472;2022-07-23T03:34:06;17.58;69.03
66670;DHT22;53568;52.164;4.472;2022-07-23T03:36:31;17.53;69.23
66670;DHT22;53568;52.164;4.472;2022-07-23T03:38:57;17.55;69.51
66670;DHT22;53568;52.164;4.472;2022-07-23T03:41:22;17.61;69.47
66670;DHT22;53568;52.164;4.472;2022-07-23T03:43:48;17.71;68.54
66670;DHT22;53568;52.164;4.472;2022-07-23T03:46:13;17.46;69.79
66670;DHT22;53568;52.164;4.472;2022-07-23T03:48:39;17.43;70.24
66670;DHT22;53568;52.164;4.472;2022-07-23T03:51:04;17.37;70.58
66670;DHT22;53568;52.164;4.472;2022-07-23T03:53:30;17.38;70.68
66670;DHT22;53568;52.164;4.472;2022-07-23T03:55:55;17.46;70.51
66670;DHT22;53568;52.164;4.472;2022-07-23T03:58:21;17.36;70.98
66670;DHT22;53568;52.164;4.472;2022-07-23T04:00:46;17.13;71.57
66670;DHT22;53568;52.164;4.472;2022-07-23T04:03:12;17.12;71.50
66670;DHT22;53568;52.164;4.472;2022-07-23T04:05:38;17.09;71.10
66670;DHT22;53568;52.164;4.472;2022-07-23T04:08:03;17.12;70.43
66670;DHT22;53568;52.164;4.472;2022-07-23T04:10:29;17.14;70.45
66670;DHT22;53568;52.164;4.472;2022-07-23T04:12:54;17.20;70.11
66670;DHT22;53568;52.164;4.472;2022-07-23T04:15:20;17.24;69.84
66670;DHT22;53568;52.164;4.472;2022-07-23T04:17:45;17.20;69.30
66670;DHT22;53568;52.164;4.472;2022-07-23T04:20:12;17.24;69.26
66670;DHT22;53568;52.164;4.472;2022-07-23T04:22:38;17.27;69.24
66670;DHT22;53568;52.164;4.472;2022-07-23T04:25:04;17.40;69.07
66670;DHT22;53568;52.164;4.472;2022-07-23T04:27:30;17.50;68.60
66670;DHT22;53568;52.164;4.472;2022-07-23T04:29:58;17.61;67.57
66670;DHT22;53568;52.164;4.472;2022-07-23T04:32:24;17.68;67.21
66670;DHT22;53568;52.164;4.472;2022-07-23T04:34:49;17.71;67.45
66670;DHT22;53568;52.164;4.472;2022-07-23T04:37:15;17.87;67.26
66670;DHT22;53568;52.164;4.472;2022-07-23T04:39:42;18.00;66.69
66670;DHT22;53568;52.164;4.472;2022-07-23T04:42:07;18.15;66.37
66670;DHT22;53568;52.164;4.472;2022-07-23T04:44:32;18.26;66.39
66670;DHT22;53568;52.164;4.472;2022-07-23T04:46:58;18.35;66.43
66670;DHT22;53568;52.164;4.472;2022-07-23T04:49:23;18.38;66.58
66670;DHT22;53568;52.164;4.472;2022-07-23T04:51:49;18.42;66.85
66670;DHT22;53568;52.164;4.472;2022-07-23T04:54:15;18.43;66.85
66670;DHT22;53568;52.164;4.472;2022-07-23T04:56:40;18.43;66.57
66670;DHT22;53568;52.164;4.472;2022-07-23T04:59:05;18.46;66.36
66670;DHT22;53568;52.164;4.472;2022-07-23T05:01:31;18.51;66.42
66670;DHT22;53568;52.164;4.472;2022-07-23T05:03:56;18.55;66.25
66670;DHT22;53568;52.164;4.472;2022-07-23T05:06:22;18.59;66.02
66670;DHT22;53568;52.164;4.472;2022-07-23T05:08:47;18.55;66.22
66670;DHT22;53568;52.164;4.472;2022-07-23T05:11:13;18.51;66.49
66670;DHT22;53568;52.164;4.472;2022-07-23T05:13:38;18.55;66.61
66670;DHT22;53568;52.164;4.472;2022-07-23T05:16:04;18.53;66.64
66670;DHT22;53568;52.164;4.472;2022-07-23T05:18:30;18.60;66.81
66670;DHT22;53568;52.164;4.472;2022-07-23T05:20:55;18.70;66.72
66670;DHT22;53568;52.164;4.472;2022-07-23T05:23:21;18.82;66.73
66670;DHT22;53568;52.164;4.472;2022-07-23T05:25:46;18.95;66.62
66670;DHT22;53568;52.164;4.472;2022-07-23T05:28:12;19.06;66.07
66670;DHT22;53568;52.164;4.472;2022-07-23T05:30:37;19.21;65.27
66670;DHT22;53568;52.164;4.472;2022-07-23T05:33:03;19.26;65.80
66670;DHT22;53568;52.164;4.472;2022-07-23T05:35:28;19.34;65.29
66670;DHT22;53568;52.164;4.472;2022-07-23T05:37:54;19.41;63.73
66670;DHT22;53568;52.164;4.472;2022-07-23T05:40:19;19.46;63.53
66670;DHT22;53568;52.164;4.472;2022-07-23T05:42:45;19.49;63.46
66670;DHT22;53568;52.164;4.472;2022-07-23T05:45:11;19.49;63.52
66670;DHT22;53568;52.164;4.472;2022-07-23T05:47:45;19.51;63.64
66670;DHT22;53568;52.164;4.472;2022-07-23T05:50:12;19.64;63.14
66670;DHT22;53568;52.164;4.472;2022-07-23T05:52:38;19.67;62.15
66670;DHT22;53568;52.164;4.472;2022-07-23T05:55:04;19.63;62.46
66670;DHT22;53568;52.164;4.472;2022-07-23T05:57:30;19.57;62.51
66670;DHT22;53568;52.164;4.472;2022-07-23T05:59:55;19.50;61.23
66670;DHT22;53568;52.164;4.472;2022-07-23T06:02:21;19.38;62.19
66670;DHT22;53568;52.164;4.472;2022-07-23T06:04:46;19.34;62.47
66670;DHT22;53568;52.164;4.472;2022-07-23T06:07:12;19.35;63.22
66670;DHT22;53568;52.164;4.472;2022-07-23T06:09:37;19.46;63.09
66670;DHT22;53568;52.164;4.472;2022-07-23T06:12:03;19.54;62.33
66670;DHT22;53568;52.164;4.472;2022-07-23T06:14:29;19.60;62.13
66670;DHT22;53568;52.164;4.472;2022-07-23T06:16:54;19.55;61.64
66670;DHT22;53568;52.164;4.472;2022-07-23T06:19:20;19.51;61.32
66670;DHT22;53568;52.164;4.472;2022-07-23T06:21:45;19.58;61.01
66670;DHT22;53568;52.164;4.472;2022-07-23T06:24:11;19.74;60.43
66670;DHT22;53568;52.164;4.472;2022-07-23T06:26:36;19.75;60.95
66670;DHT22;53568;52.164;4.472;2022-07-23T06:29:02;19.68;61.16
66670;DHT22;53568;52.164;4.472;2022-07-23T06:31:27;19.65;60.69
66670;DHT22;53568;52.164;4.472;2022-07-23T06:33:53;19.58;61.08
66670;DHT22;53568;52.164;4.472;2022-07-23T06:36:18;19.71;60.77
66670;DHT22;53568;52.164;4.472;2022-07-23T06:38:44;19.77;60.59
66670;DHT22;53568;52.164;4.472;2022-07-23T06:41:09;19.89;60.11
66670;DHT22;53568;52.164;4.472;2022-07-23T06:43:35;20.01;60.12
66670;DHT22;53568;52.164;4.472;2022-07-23T06:46:00;20.07;59.90
66670;DHT22;53568;52.164;4.472;2022-07-23T06:48:26;20.09;59.87
66670;DHT22;53568;52.164;4.472;2022-07-23T06:50:52;20.04;60.48
66670;DHT22;53568;52.164;4.472;2022-07-23T06:53:18;20.12;60.56
66670;DHT22;53568;52.164;4.472;2022-07-23T06:55:43;20.15;59.94
66670;DHT22;53568;52.164;4.472;2022-07-23T06:58:09;20.05;60.21
66670;DHT22;53568;52.164;4.472;2022-07-23T07:00:35;19.71;61.94
66670;DHT22;53568;52.164;4.472;2022-07-23T07:03:01;19.71;62.22
66670;DHT22;53568;52.164;4.472;2022-07-23T07:05:27;19.65;62.10
66670;DHT22;53568;52.164;4.472;2022-07-23T07:07:56;19.82;61.70
66670;DHT22;53568;52.164;4.472;2022-07-23T07:10:22;19.78;61.64
66670;DHT22;53568;52.164;4.472;2022-07-23T07:12:47;19.87;61.30
66670;DHT22;53568;52.164;4.472;2022-07-23T07:15:13;19.87;61.25
66670;DHT22;53568;52.164;4.472;2022-07-23T07:17:39;19.97;61.74
66670;DHT22;53568;52.164;4.472;2022-07-23T07:20:05;20.14;61.55
66670;DHT22;53568;52.164;4.472;2022-07-23T07:22:31;20.15;61.71
66670;DHT22;53568;52.164;4.472;2022-07-23T07:24:56;20.15;61.39
66670;DHT22;53568;52.164;4.472;2022-07-23T07:27:22;20.25;61.39
66670;DHT22;53568;52.164;4.472;2022-07-23T07:29:47;20.09;61.97
66670;DHT22;53568;52.164;4.472;2022-07-23T07:32:13;20.07;61.52
66670;DHT22;53568;52.164;4.472;2022-07-23T07:34:39;20.07;61.78
66670;DHT22;53568;52.164;4.472;2022-07-23T07:37:04;20.17;61.01
66670;DHT22;53568;52.164;4.472;2022-07-23T07:39:30;20.14;60.94
66670;DHT22;53568;52.164;4.472;2022-07-23T07:41:55;19.82;62.13
66670;DHT22;53568;52.164;4.472;2022-07-23T07:44:21;20.02;61.11
66670;DHT22;53568;52.164;4.472;2022-07-23T07:46:46;20.21;61.53
66670;DHT22;53568;52.164;4.472;2022-07-23T07:49:12;20.19;60.64
66670;DHT22;53568;52.164;4.472;2022-07-23T07:51:37;20.19;61.29
66670;DHT22;53568;52.164;4.472;2022-07-23T07:54:03;20.26;61.72
66670;DHT22;53568;52.164;4.472;2022-07-23T07:56:28;20.33;61.11
66670;DHT22;53568;52.164;4.472;2022-07-23T07:58:54;20.31;61.68
66670;DHT22;53568;52.164;4.472;2022-07-23T08:01:19;20.51;61.16
66670;DHT22;53568;52.164;4.472;2022-07-23T08:03:46;20.48;59.87
66670;DHT22;53568;52.164;4.472;2022-07-23T08:06:11;20.63;59.70
66670;DHT22;53568;52.164;4.472;2022-07-23T08:08:37;20.66;59.14
66670;DHT22;53568;52.164;4.472;2022-07-23T08:11:02;20.61;59.29
66670;DHT22;53568;52.164;4.472;2022-07-23T08:13:28;20.69;59.45
66670;DHT22;53568;52.164;4.472;2022-07-23T08:15:54;20.86;58.93
66670;DHT22;53568;52.164;4.472;2022-07-23T08:18:19;20.85;58.81
66670;DHT22;53568;52.164;4.472;2022-07-23T08:20:45;20.83;58.41
66670;DHT22;53568;52.164;4.472;2022-07-23T08:23:10;20.77;58.59
66670;DHT22;53568;52.164;4.472;2022-07-23T08:25:41;20.73;59.51
66670;DHT22;53568;52.164;4.472;2022-07-23T08:28:10;20.90;59.25
66670;DHT22;53568;52.164;4.472;2022-07-23T08:30:37;20.83;58.35
66670;DHT22;53568;52.164;4.472;2022-07-23T08:33:12;20.92;58.78
66670;DHT22;53568;52.164;4.472;2022-07-23T08:35:44;21.04;57.43
66670;DHT22;53568;52.164;4.472;2022-07-23T08:38:13;21.11;56.98
66670;DHT22;53568;52.164;4.472;2022-07-23T08:40:42;21.17;57.74
66670;DHT22;53568;52.164;4.472;2022-07-23T08:43:12;21.28;57.73
66670;DHT22;53568;52.164;4.472;2022-07-23T08:45:43;21.37;57.20
66670;DHT22;53568;52.164;4.472;2022-07-23T08:48:12;21.57;56.71
66670;DHT22;53568;52.164;4.472;2022-07-23T08:50:42;21.61;56.58
66670;DHT22;53568;52.164;4.472;2022-07-23T08:53:09;21.65;56.37
66670;DHT22;53568;52.164;4.472;2022-07-23T08:55:35;21.68;56.27
66670;DHT22;53568;52.164;4.472;2022-07-23T08:58:01;21.60;57.09
66670;DHT22;53568;52.164;4.472;2022-07-23T09:00:27;21.81;55.94
66670;DHT22;53568;52.164;4.472;2022-07-23T09:02:53;21.92;54.33
66670;DHT22;53568;52.164;4.472;2022-07-23T09:05:19;21.77;55.16
66670;DHT22;53568;52.164;4.472;2022-07-23T09:08:11;21.80;55.54
66670;DHT22;53568;52.164;4.472;2022-07-23T09:10:46;21.94;55.07
66670;DHT22;53568;52.164;4.472;2022-07-23T09:13:48;22.12;54.56
66670;DHT22;53568;52.164;4.472;2022-07-23T09:16:17;22.16;54.74
66670;DHT22;53568;52.164;4.472;2022-07-23T09:19:10;22.41;55.01
66670;DHT22;53568;52.164;4.472;2022-07-23T09:21:38;22.41;55.07
66670;DHT22;53568;52.164;4.472;2022-07-23T09:26:39;22.63;52.90
66670;DHT22;53568;52.164;4.472;2022-07-23T09:29:16;22.60;53.25
66670;DHT22;53568;52.164;4.472;2022-07-23T09:34:25;22.79;53.80
66670;DHT22;53568;52.164;4.472;2022-07-23T09:36:54;22.90;53.51
66670;DHT22;53568;52.164;4.472;2022-07-23T09:39:31;22.99;52.92
66670;DHT22;53568;52.164;4.472;2022-07-23T09:42:12;23.09;53.29
66670;DHT22;53568;52.164;4.472;2022-07-23T09:44:43;23.26;52.16
66670;DHT22;53568;52.164;4.472;2022-07-23T09:47:08;23.31;51.67
66670;DHT22;53568;52.164;4.472;2022-07-23T09:49:34;23.30;51.21
66670;DHT22;53568;52.164;4.472;2022-07-23T09:52:00;23.33;51.29
66670;DHT22;53568;52.164;4.472;2022-07-23T09:54:39;23.47;50.64
66670;DHT22;53568;52.164;4.472;2022-07-23T09:59:35;23.54;51.22
66670;DHT22;53568;52.164;4.472;2022-07-23T10:02:02;23.67;51.28
66670;DHT22;53568;52.164;4.472;2022-07-23T10:04:29;23.66;52.09
66670;DHT22;53568;52.164;4.472;2022-07-23T10:07:00;23.61;52.46
66670;DHT22;53568;52.164;4.472;2022-07-23T10:09:31;23.66;52.36
66670;DHT22;53568;52.164;4.472;2022-07-23T10:12:32;23.63;52.00
66670;DHT22;53568;52.164;4.472;2022-07-23T10:15:03;23.75;52.40
66670;DHT22;53568;52.164;4.472;2022-07-23T10:17:31;23.75;52.31
66670;DHT22;53568;52.164;4.472;2022-07-23T10:19:56;23.73;52.71
66670;DHT22;53568;52.164;4.472;2022-07-23T10:22:35;23.80;52.16
66670;DHT22;53568;52.164;4.472;2022-07-23T10:33:56;23.60;52.11
66670;DHT22;53568;52.164;4.472;2022-07-23T10:36:40;23.34;52.59
66670;DHT22;53568;52.164;4.472;2022-07-23T10:39:33;23.46;51.93
66670;DHT22;53568;52.164;4.472;2022-07-23T10:42:12;23.47;51.71
66670;DHT22;53568;52.164;4.472;2022-07-23T10:44:46;23.58;51.85
66670;DHT22;53568;52.164;4.472;2022-07-23T10:47:28;23.61;51.55
66670;DHT22;53568;52.164;4.472;2022-07-23T10:50:20;23.56;52.61
66670;DHT22;53568;52.164;4.472;2022-07-23T10:57:56;23.71;51.98
66670;DHT22;53568;52.164;4.472;2022-07-23T11:00:39;23.73;51.23
66670;DHT22;53568;52.164;4.472;2022-07-23T11:03:45;23.58;52.03
66670;DHT22;53568;52.164;4.472;2022-07-23T11:06:13;23.57;51.18
66670;DHT22;53568;52.164;4.472;2022-07-23T11:08:39;23.64;50.34
66670;DHT22;53568;52.164;4.472;2022-07-23T11:13:44;23.91;49.52
66670;DHT22;53568;52.164;4.472;2022-07-23T11:16:20;24.05;49.86
66670;DHT22;53568;52.164;4.472;2022-07-23T11:18:58;24.14;49.93
66670;DHT22;53568;52.164;4.472;2022-07-23T11:32:29;24.28;49.42
66670;DHT22;53568;52.164;4.472;2022-07-23T11:34:55;24.18;49.25
66670;DHT22;53568;52.164;4.472;2022-07-23T11:39:55;24.36;48.76
66670;DHT22;53568;52.164;4.472;2022-07-23T11:42:21;24.42;49.78
66670;DHT22;53568;52.164;4.472;2022-07-23T11:44:47;24.56;50.04
66670;DHT22;53568;52.164;4.472;2022-07-23T11:47:13;24.55;50.33
66670;DHT22;53568;52.164;4.472;2022-07-23T11:50:01;24.56;49.99
66670;DHT22;53568;52.164;4.472;2022-07-23T11:52:28;24.49;51.08
66670;DHT22;53568;52.164;4.472;2022-07-23T11:55:09;24.26;51.01
66670;DHT22;53568;52.164;4.472;2022-07-23T11:57:38;24.04;52.33
66670;DHT22;53568;52.164;4.472;2022-07-23T12:00:09;23.94;52.59
66670;DHT22;53568;52.164;4.472;2022-07-23T12:02:37;23.53;53.63
66670;DHT22;53568;52.164;4.472;2022-07-23T12:05:04;23.50;54.53
66670;DHT22;53568;52.164;4.472;2022-07-23T12:07:35;23.49;53.79
66670;DHT22;53568;52.164;4.472;2022-07-23T12:10:14;23.37;54.76
66670;DHT22;53568;52.164;4.472;2022-07-23T12:12:43;23.63;54.01
66670;DHT22;53568;52.164;4.472;2022-07-23T12:15:10;23.88;53.58
66670;DHT22;53568;52.164;4.472;2022-07-23T12:17:38;23.80;53.33
66670;DHT22;53568;52.164;4.472;2022-07-23T12:20:06;23.78;53.53
66670;DHT22;53568;52.164;4.472;2022-07-23T12:22:46;23.97;52.59
66670;DHT22;53568;52.164;4.472;2022-07-23T12:25:17;24.17;52.32
66670;DHT22;53568;52.164;4.472;2022-07-23T12:27:44;24.36;52.28
66670;DHT22;53568;52.164;4.472;2022-07-23T12:30:25;24.47;52.09
66670;DHT22;53568;52.164;4.472;2022-07-23T12:32:54;24.52;52.11
66670;DHT22;53568;52.164;4.472;2022-07-23T12:35:21;24.64;51.92
66670;DHT22;53568;52.164;4.472;2022-07-23T12:37:49;24.61;51.86
66670;DHT22;53568;52.164;4.472;2022-07-23T12:40:29;24.58;51.82
66670;DHT22;53568;52.164;4.472;2022-07-23T12:43:01;24.55;51.54
66670;DHT22;53568;52.164;4.472;2022-07-23T12:45:53;24.58;51.46
66670;DHT22;53568;52.164;4.472;2022-07-23T12:48:30;24.56;51.95
66670;DHT22;53568;52.164;4.472;2022-07-23T13:04:15;24.44;52.41
66670;DHT22;53568;52.164;4.472;2022-07-23T13:06:43;24.56;52.15
66670;DHT22;53568;52.164;4.472;2022-07-23T13:09:13;24.54;51.99
66670;DHT22;53568;52.164;4.472;2022-07-23T13:11:39;24.48;52.19
66670;DHT22;53568;52.164;4.472;2022-07-23T13:14:05;24.51;52.12
66670;DHT22;53568;52.164;4.472;2022-07-23T13:16:31;24.54;51.84
66670;DHT22;53568;52.164;4.472;2022-07-23T13:19:04;24.55;51.57
66670;DHT22;53568;52.164;4.472;2022-07-23T13:21:41;24.69;51.44
66670;DHT22;53568;52.164;4.472;2022-07-23T13:24:11;24.44;51.85
66670;DHT22;53568;52.164;4.472;2022-07-23T13:26:38;24.34;52.32
66670;DHT22;53568;52.164;4.472;2022-07-23T13:29:05;24.14;52.76
66670;DHT22;53568;52.164;4.472;2022-07-23T13:31:32;23.70;54.12
66670;DHT22;53568;52.164;4.472;2022-07-23T13:33:58;23.36;54.85
66670;DHT22;53568;52.164;4.472;2022-07-23T13:36:23;23.54;54.95
66670;DHT22;53568;52.164;4.472;2022-07-23T13:38:49;23.75;53.63
66670;DHT22;53568;52.164;4.472;2022-07-23T13:41:19;23.98;53.11
66670;DHT22;53568;52.164;4.472;2022-07-23T13:43:45;24.17;52.35
66670;DHT22;53568;52.164;4.472;2022-07-23T13:46:15;24.35;51.87
66670;DHT22;53568;52.164;4.472;2022-07-23T13:48:40;24.32;52.04
66670;DHT22;53568;52.164;4.472;2022-07-23T13:51:07;24.36;51.68
66670;DHT22;53568;52.164;4.472;2022-07-23T13:53:32;24.58;51.27
66670;DHT22;53568;52.164;4.472;2022-07-23T13:55:58;24.66;51.34
66670;DHT22;53568;52.164;4.472;2022-07-23T13:58:23;24.69;51.37
66670;DHT22;53568;52.164;4.472;2022-07-23T14:00:52;24.79;50.82
66670;DHT22;53568;52.164;4.472;2022-07-23T14:03:19;24.87;49.76
66670;DHT22;53568;52.164;4.472;2022-07-23T14:05:45;24.66;51.00
66670;DHT22;53568;52.164;4.472;2022-07-23T14:08:11;24.64;51.20
66670;DHT22;53568;52.164;4.472;2022-07-23T14:10:37;24.62;51.13
66670;DHT22;53568;52.164;4.472;2022-07-23T14:13:02;24.65;51.06
66670;DHT22;53568;52.164;4.472;2022-07-23T14:15:31;24.62;51.42
66670;DHT22;53568;52.164;4.472;2022-07-23T14:17:58;24.55;51.49
66670;DHT22;53568;52.164;4.472;2022-07-23T14:20:23;24.62;51.23
66670;DHT22;53568;52.164;4.472;2022-07-23T14:22:49;24.35;51.63
66670;DHT22;53568;52.164;4.472;2022-07-23T14:25:15;24.38;51.41
66670;DHT22;53568;52.164;4.472;2022-07-23T14:27:42;24.38;51.12
66670;DHT22;53568;52.164;4.472;2022-07-23T14:30:09;24.52;50.85
66670;DHT22;53568;52.164;4.472;2022-07-23T14:32:35;24.52;50.42
66670;DHT22;53568;52.164;4.472;2022-07-23T14:35:03;24.45;50.53
66670;DHT22;53568;52.164;4.472;2022-07-23T14:37:29;24.26;50.95
66670;DHT22;53568;52.164;4.472;2022-07-23T14:39:59;23.91;51.87
66670;DHT22;53568;52.164;4.472;2022-07-23T14:42:25;23.84;52.46
66670;DHT22;53568;52.164;4.472;2022-07-23T14:44:50;23.96;51.78
66670;DHT22;53568;52.164;4.472;2022-07-23T14:47:16;24.14;51.44
66670;DHT22;53568;52.164;4.472;2022-07-23T14:49:42;24.29;51.05
66670;DHT22;53568;52.164;4.472;2022-07-23T14:52:07;24.22;51.41
66670;DHT22;53568;52.164;4.472;2022-07-23T14:54:34;24.26;51.50
66670;DHT22;53568;52.164;4.472;2022-07-23T14:57:01;24.45;50.60
66670;DHT22;53568;52.164;4.472;2022-07-23T14:59:28;24.64;50.16
66670;DHT22;53568;52.164;4.472;2022-07-23T15:01:54;24.83;49.54
66670;DHT22;53568;52.164;4.472;2022-07-23T15:04:20;25.00;48.50
66670;DHT22;53568;52.164;4.472;2022-07-23T15:06:46;25.00;48.83
66670;DHT22;53568;52.164;4.472;2022-07-23T15:09:12;24.69;49.10
66670;DHT22;53568;52.164;4.472;2022-07-23T15:11:39;24.47;49.86
66670;DHT22;53568;52.164;4.472;2022-07-23T15:14:04;24.25;50.24
66670;DHT22;53568;52.164;4.472;2022-07-23T15:16:32;24.12;50.24
66670;DHT22;53568;52.164;4.472;2022-07-23T15:18:57;24.08;51.07
66670;DHT22;53568;52.164;4.472;2022-07-23T15:21:23;24.14;51.00
66670;DHT22;53568;52.164;4.472;2022-07-23T15:23:49;24.41;51.12
66670;DHT22;53568;52.164;4.472;2022-07-23T15:26:14;24.45;50.01
66670;DHT22;53568;52.164;4.472;2022-07-23T15:28:41;24.51;49.70
66670;DHT22;53568;52.164;4.472;2022-07-23T15:31:07;24.52;49.70
66670;DHT22;53568;52.164;4.472;2022-07-23T15:33:33;24.36;50.21
66670;DHT22;53568;52.164;4.472;2022-07-23T15:35:58;24.35;50.53
66670;DHT22;53568;52.164;4.472;2022-07-23T15:38:26;24.51;49.73
66670;DHT22;53568;52.164;4.472;2022-07-23T15:40:55;24.38;50.32
66670;DHT22;53568;52.164;4.472;2022-07-23T15:43:25;24.25;50.15
66670;DHT22;53568;52.164;4.472;2022-07-23T15:45:51;24.12;50.70
66670;DHT22;53568;52.164;4.472;2022-07-23T15:48:18;24.32;50.93
66670;DHT22;53568;52.164;4.472;2022-07-23T15:50:44;24.45;50.31
66670;DHT22;53568;52.164;4.472;2022-07-23T15:53:09;24.71;49.24
66670;DHT22;53568;52.164;4.472;2022-07-23T15:55:35;24.89;48.74
66670;DHT22;53568;52.164;4.472;2022-07-23T15:58:02;25.06;48.31
66670;DHT22;53568;52.164;4.472;2022-07-23T16:00:27;25.18;48.28
66670;DHT22;53568;52.164;4.472;2022-07-23T16:02:53;25.15;48.13
66670;DHT22;53568;52.164;4.472;2022-07-23T16:05:18;25.12;47.87
66670;DHT22;53568;52.164;4.472;2022-07-23T16:07:44;25.24;47.83
66670;DHT22;53568;52.164;4.472;2022-07-23T16:10:09;25.15;47.57
66670;DHT22;53568;52.164;4.472;2022-07-23T16:12:36;24.80;48.46
66670;DHT22;53568;52.164;4.472;2022-07-23T16:15:02;24.69;49.01
66670;DHT22;53568;52.164;4.472;2022-07-23T16:17:29;24.75;49.18
66670;DHT22;53568;52.164;4.472;2022-07-23T16:19:54;24.90;48.82
66670;DHT22;53568;52.164;4.472;2022-07-23T16:22:22;25.10;47.86